Time;durP1;ratioP1;P1;durP2;ratioP2;P2;SDS_P1;SDS_P2;PMS_P1;PMS_P2;Temp;Humidity;BMP_temperature;BMP_pressure;BME280_temperature;BME280_humidity;BME280_pressure;Samples;Min_cycle;Max_cycle;Signal;HPM_P1;HPM_P2
2022/01/14 00:02:45;;;;;;;;;;;-2.40;99.90;;;-3.73;100.00;97494.66;10505552;28;1798;-68
2022/01/14 00:07:48;;;;;;;;;;;-2.40;99.90;;;-3.89;100.00;97505.72;10497214;28;1924;-66
2022/01/14 00:12:54;;;;;;;;;;;-2.50;99.90;;;-3.90;100.00;97504.06;10499261;28;1900;-66
2022/01/14 00:17:57;;;;;;;;;;;-2.60;99.90;;;-3.84;100.00;97503.50;10494440;28;2349;-67
2022/01/14 00:23:01;;;;;;;;;;;-2.70;99.90;;;-3.73;100.00;97499.91;10499903;28;1835;-66
2022/01/14 00:33:25;;;;;;;;;;;-2.60;99.90;;;-3.84;100.00;97493.81;10501892;28;1931;-65
2022/01/14 00:38:28;;;;;;;;;;;-2.60;99.90;;;-3.85;100.00;97488.72;10497463;28;1789;-68
2022/01/14 00:43:31;;;;;;;;;;;-2.70;99.90;;;-3.85;100.00;97486.91;10500272;28;1910;-65
2022/01/14 00:48:35;;;;;;;;;;;-2.70;99.90;;;-3.86;100.00;97472.13;10489082;28;1908;-67
2022/01/14 00:53:38;;;;;;;;;;;-2.60;99.90;;;-3.87;100.00;97462.59;10488862;28;1912;-66
2022/01/14 01:04:02;;;;;;;;;;;-2.70;99.90;;;-3.84;100.00;97458.84;10497658;28;1965;-67
2022/01/14 01:09:08;;;;;;;;;;;-2.60;99.90;;;-3.89;100.00;97443.50;10508297;28;1749;-66
2022/01/14 01:14:16;;;;;;;;;;;-2.70;99.90;;;-3.91;100.00;97439.38;10505994;28;1857;-65
2022/01/14 01:19:19;;;;;;;;;;;-2.70;99.90;;;-3.91;100.00;97455.97;10501259;28;1812;-67
2022/01/14 01:24:22;;;;;;;;;;;-2.70;99.90;;;-3.88;100.00;97449.56;10509252;28;1975;-67
2022/01/14 01:29:47;;;;;;;;;;;-2.70;99.90;;;-3.92;100.00;97453.47;10501247;28;2038;-67
2022/01/14 01:34:50;;;;;;;;;;;-2.70;99.90;;;-4.00;100.00;97446.31;10526847;28;1907;-67
2022/01/14 01:39:53;;;;;;;;;;;-2.70;99.90;;;-4.04;100.00;97450.19;10531493;28;1549;-67
2022/01/14 01:44:58;;;;;;;;;;;-2.80;99.90;;;-4.06;100.00;97448.69;10523499;28;1957;-64
2022/01/14 01:50:02;;;;;;;;;;;-2.80;99.90;;;-4.18;100.00;97454.09;10519161;28;2445;-66
2022/01/14 01:55:05;;;;;;;;;;;-2.90;99.90;;;-4.33;100.00;97450.22;10511056;28;1888;-66
2022/01/14 02:00:08;;;;;;;;;;;-3.00;99.90;;;-4.29;100.00;97450.78;10492310;28;1761;-66
2022/01/14 02:05:11;;;;;;;;;;;-3.10;99.90;;;-4.23;100.00;97439.72;10508762;28;1910;-65
2022/01/14 02:10:14;;;;;;;;;;;-3.10;99.90;;;-4.22;100.00;97441.34;10540451;28;1717;-66
2022/01/14 02:15:29;;;;;;;;;;;-3.00;99.90;;;-4.29;100.00;97435.03;10524800;28;1811;-64
2022/01/14 02:26:10;;;;;;;;;;;-3.00;99.90;;;-4.13;100.00;97443.16;10373421;28;1918;-67
2022/01/14 02:31:20;;;;;;;;;;;-3.00;99.90;;;-4.19;100.00;97430.59;10475041;28;1920;-66
2022/01/14 02:36:25;;;;;;;;;;;-3.00;99.90;;;-4.23;100.00;97423.97;10502297;28;1854;-66
2022/01/14 02:41:28;;;;;;;;;;;-3.00;99.90;;;-4.30;100.00;97410.56;10497965;28;1915;-67
2022/01/14 02:46:36;;;;;;;;;;;-3.10;99.90;;;-4.19;100.00;97412.22;10505344;28;2021;-67
2022/01/14 02:51:39;;;;;;;;;;;-3.10;99.90;;;-4.15;100.00;97411.75;10497554;28;2011;-67
2022/01/14 02:56:43;;;;;;;;;;;-3.00;99.90;;;-4.17;100.00;97410.25;10492420;28;1958;-67
2022/01/14 03:01:46;;;;;;;;;;;-3.00;99.90;;;-4.20;100.00;97398.25;10495659;28;2290;-67
2022/01/14 03:06:49;;;;;;;;;;;-3.00;99.90;;;-4.19;100.00;97388.56;10500805;28;1975;-67
2022/01/14 03:11:52;;;;;;;;;;;-3.00;99.90;;;-4.22;100.00;97379.16;10497984;28;1900;-67
2022/01/14 03:16:58;;;;;;;;;;;-3.00;99.90;;;-4.20;100.00;97381.66;10499886;28;1942;-67
2022/01/14 03:22:18;;;;;;;;;;;-1.60;99.90;;;-4.22;100.00;97370.47;10495195;28;1899;-66
2022/01/14 03:27:21;;;;;;;;;;;-3.00;99.90;;;-4.25;100.00;97368.97;10496302;28;2251;-68
2022/01/14 03:32:25;;;;;;;;;;;-2.90;99.90;;;-4.25;100.00;97363.72;10499890;28;1674;-67
2022/01/14 03:37:28;;;;;;;;;;;-3.00;99.90;;;-4.17;100.00;97363.81;10487237;28;1920;-66
2022/01/14 03:42:31;;;;;;;;;;;-3.00;99.90;;;-4.19;100.00;97357.06;10508208;28;1849;-65
2022/01/14 03:47:34;;;;;;;;;;;-3.00;99.90;;;-4.15;100.00;97358.41;10528035;28;1894;-66
2022/01/14 03:52:37;;;;;;;;;;;-3.00;99.90;;;-4.30;100.00;97352.81;10523101;28;1871;-65
2022/01/14 03:57:41;;;;;;;;;;;-3.00;99.90;;;-4.31;100.00;97347.69;10492998;28;2170;-67
2022/01/14 04:02:44;;;;;;;;;;;-3.10;99.90;;;-4.31;100.00;97342.44;10493459;28;2128;-65
2022/01/14 04:07:47;;;;;;;;;;;-3.10;99.90;;;-4.34;100.00;97343.53;10498428;28;1912;-66
2022/01/14 04:12:56;;;;;;;;;;;-3.10;99.90;;;-4.30;100.00;97341.47;10493367;28;2024;-67
2022/01/14 04:17:59;;;;;;;;;;;-3.10;99.90;;;-4.31;100.00;97339.81;10497235;28;1821;-66
2022/01/14 04:23:02;;;;;;;;;;;-3.10;99.90;;;-4.35;100.00;97334.84;10497182;28;2243;-67
2022/01/14 04:28:06;;;;;;;;;;;-3.10;99.90;;;-4.27;100.00;97342.00;10489733;28;2192;-67
2022/01/14 04:33:09;;;;;;;;;;;-3.10;99.90;;;-4.33;100.00;97333.88;10498545;28;2501;-67
2022/01/14 04:38:12;;;;;;;;;;;-3.10;99.90;;;-4.42;100.00;97331.13;10503139;28;1782;-67
2022/01/14 04:43:19;;;;;;;;;;;-3.20;99.90;;;-4.41;100.00;97321.47;10505335;28;1790;-66
2022/01/14 04:48:22;;;;;;;;;;;-3.10;99.90;;;-4.35;100.00;97316.47;10494430;28;1981;-66
2022/01/14 04:53:25;;;;;;;;;;;-3.20;99.90;;;-4.32;100.00;97315.38;10491375;28;1926;-66
2022/01/14 04:58:28;;;;;;;;;;;-3.10;99.90;;;-4.36;100.00;97314.00;10516600;28;2497;-66
2022/01/14 05:03:32;;;;;;;;;;;-3.10;99.90;;;-4.38;100.00;97314.13;10512720;28;1773;-66
2022/01/14 05:08:38;;;;;;;;;;;-3.20;99.90;;;-4.31;100.00;97316.19;10505143;28;1909;-66
2022/01/14 05:13:41;;;;;;;;;;;-3.10;99.90;;;-4.18;100.00;97312.28;10513055;28;1829;-66
2022/01/14 05:18:44;;;;;;;;;;;-3.00;99.90;;;-4.08;100.00;97307.78;10500978;28;1864;-69
2022/01/14 05:23:47;;;;;;;;;;;-2.90;99.90;;;-4.06;100.00;97315.56;10505362;28;2438;-68
2022/01/14 05:28:51;;;;;;;;;;;-2.90;99.90;;;-4.02;100.00;97313.44;10499152;28;1999;-67
2022/01/14 05:33:54;;;;;;;;;;;-2.80;99.90;;;-3.98;100.00;97318.28;10495446;28;1860;-67
2022/01/14 05:38:57;;;;;;;;;;;-2.80;99.90;;;-4.04;100.00;97313.59;10504202;28;1888;-66
2022/01/14 05:44:01;;;;;;;;;;;-2.80;99.90;;;-4.09;100.00;97310.56;10498312;28;2192;-65
2022/01/14 05:49:04;;;;;;;;;;;-2.90;99.90;;;-4.01;100.00;97318.53;10507147;28;1984;-66
2022/01/14 05:54:07;;;;;;;;;;;-2.90;99.90;;;-4.12;100.00;97321.38;10494975;28;1908;-66
2022/01/14 05:59:10;;;;;;;;;;;-2.90;99.90;;;-4.07;100.00;97329.66;10498193;28;1895;-67
2022/01/14 06:04:14;;;;;;;;;;;-2.90;99.90;;;-4.20;100.00;97329.97;10491560;28;2199;-67
2022/01/14 06:09:17;;;;;;;;;;;-2.90;99.90;;;-4.23;100.00;97334.69;10519244;28;1922;-66
2022/01/14 06:14:20;;;;;;;;;;;-3.00;99.90;;;-4.22;100.00;97337.16;10500757;28;1903;-69
2022/01/14 06:19:27;;;;;;;;;;;-3.00;99.90;;;-4.13;100.00;97332.84;10500670;28;2032;-64
2022/01/14 06:24:30;;;;;;;;;;;-3.00;99.90;;;-4.18;100.00;97321.97;10508317;28;1974;-66
2022/01/14 06:29:33;;;;;;;;;;;-3.00;99.90;;;-4.15;100.00;97321.66;10500565;28;1921;-68
2022/01/14 06:34:37;;;;;;;;;;;-3.00;99.90;;;-4.18;100.00;97324.59;10506780;28;1780;-66
2022/01/14 06:39:39;;;;;;;;;;;-3.00;99.90;;;-4.15;100.00;97321.66;10505764;28;1922;-66
2022/01/14 06:44:42;;;;;;;;;;;-3.00;99.90;;;-4.08;100.00;97313.03;10505769;28;1812;-66
2022/01/14 06:49:45;;;;;;;;;;;-2.90;99.90;;;-4.00;100.00;97299.22;10502326;28;1926;-68
2022/01/14 06:54:49;;;;;;;;;;;-2.80;99.90;;;-3.93;100.00;97304.72;10496755;28;2200;-66
2022/01/14 06:59:52;;;;;;;;;;;-2.80;99.90;;;-3.84;100.00;97296.75;10501307;28;1860;-68
2022/01/14 07:04:55;;;;;;;;;;;-2.70;99.90;;;-3.72;100.00;97307.09;10487575;28;2449;-67
2022/01/14 07:09:59;;;;;;;;;;;-2.60;99.90;;;-3.61;100.00;97312.97;10496053;28;1936;-67
2022/01/14 07:15:02;;;;;;;;;;;-2.50;99.90;;;-3.50;100.00;97316.34;10491120;28;2323;-65
2022/01/14 07:20:08;;;;;;;;;;;-2.30;99.90;;;-3.41;100.00;97316.31;10474414;28;1877;-67
2022/01/14 07:25:11;;;;;;;;;;;-2.30;99.90;;;-3.35;100.00;97322.78;10506586;28;2032;-68
2022/01/14 07:30:15;;;;;;;;;;;-2.20;99.90;;;-3.27;100.00;97328.13;10491997;28;1898;-68
2022/01/14 07:35:18;;;;;;;;;;;-2.20;99.90;;;-3.21;100.00;97326.69;10494574;28;1856;-66
2022/01/14 07:40:21;;;;;;;;;;;-2.10;99.90;;;-3.10;100.00;97332.56;10503434;28;2188;-66
2022/01/14 07:45:24;;;;;;;;;;;-2.10;99.90;;;-2.90;100.00;97324.50;10501192;28;1979;-65
2022/01/14 07:50:27;;;;;;;;;;;-1.90;99.90;;;-2.79;100.00;97322.47;10497549;28;1864;-66
2022/01/14 07:55:30;;;;;;;;;;;-1.80;99.90;;;-2.61;100.00;97326.88;10487474;28;2631;-66
2022/01/14 08:00:34;;;;;;;;;;;-1.60;99.90;;;-2.46;100.00;97328.81;10494836;28;1895;-67
2022/01/14 08:05:37;;;;;;;;;;;-1.50;99.90;;;-2.27;100.00;97325.16;10498492;28;1914;-68
2022/01/14 08:10:40;;;;;;;;;;;-1.30;99.90;;;-2.13;100.00;97339.56;10503616;28;1834;-66
2022/01/14 08:15:43;;;;;;;;;;;-1.20;99.90;;;-1.99;100.00;97336.34;10509375;28;1863;-66
2022/01/14 08:20:45;;;;;;;;;;;-1.00;99.90;;;-1.87;100.00;97338.69;10512332;28;2420;-67
2022/01/14 08:25:53;;;;;;;;;;;-0.90;99.90;;;-1.73;100.00;97336.28;10503827;28;1930;-66
2022/01/14 08:30:56;;;;;;;;;;;-0.80;99.90;;;-1.58;100.00;97325.16;10503137;28;1846;-66
2022/01/14 08:35:59;;;;;;;;;;;-0.60;99.90;;;-1.32;100.00;97333.00;10499587;28;1875;-66
2022/01/14 08:41:02;;;;;;;;;;;-0.40;99.90;;;-1.16;100.00;97323.28;10495795;28;1936;-66
2022/01/14 08:46:06;;;;;;;;;;;-0.20;99.90;;;-0.94;100.00;97326.31;10504859;28;1913;-67
2022/01/14 08:51:09;;;;;;;;;;;-0.10;99.90;;;-0.69;100.00;97325.31;10496288;28;2390;-67
2022/01/14 08:56:12;;;;;;;;;;;0.20;99.90;;;-0.62;99.21;97321.03;10495663;28;1672;-67
2022/01/14 09:01:15;;;;;;;;;;;0.30;99.90;;;-0.52;98.70;97312.94;10492544;28;1836;-67
2022/01/14 09:06:19;;;;;;;;;;;0.40;99.90;;;-0.39;97.36;97309.78;10497164;28;1918;-67
2022/01/14 09:11:22;;;;;;;;;;;0.50;99.90;;;-0.35;95.69;97309.28;10500065;28;1455;-66
2022/01/14 09:16:25;;;;;;;;;;;0.60;99.90;;;-0.21;95.25;97307.78;10492272;28;2031;-68
2022/01/14 09:21:28;;;;;;;;;;;0.70;99.90;;;-0.16;93.27;97320.50;10503817;28;1861;-68
2022/01/14 09:26:32;;;;;;;;;;;0.80;99.90;;;0.02;93.58;97317.63;10502235;28;1942;-68
2022/01/14 09:31:35;;;;;;;;;;;0.90;99.90;;;0.15;90.87;97323.22;10503354;28;1388;-65
2022/01/14 09:36:38;;;;;;;;;;;1.10;99.90;;;0.24;90.84;97324.84;10512685;28;1844;-69
2022/01/14 09:41:41;;;;;;;;;;;1.20;99.90;;;0.34;90.26;97316.72;10518186;28;1604;-69
2022/01/14 09:46:44;;;;;;;;;;;1.30;99.90;;;0.48;89.51;97322.09;10513471;28;1979;-68
2022/01/14 09:51:47;;;;;;;;;;;1.40;99.90;;;0.62;89.17;97322.34;10493993;28;1902;-66
2022/01/14 09:56:50;;;;;;;;;;;1.60;99.90;;;0.76;87.53;97317.19;10506811;28;1845;-67
2022/01/14 10:01:54;;;;;;;;;;;1.70;99.90;;;0.94;87.20;97316.06;10492691;28;1934;-68
2022/01/14 10:06:57;;;;;;;;;;;1.90;99.90;;;1.01;87.00;97312.53;10506551;28;1910;-68
2022/01/14 10:12:00;;;;;;;;;;;1.90;99.90;;;1.18;86.78;97315.06;10504627;28;1795;-67
2022/01/14 10:17:03;;;;;;;;;;;2.10;99.90;;;1.25;85.77;97303.59;10502891;28;1867;-67
2022/01/14 10:22:06;;;;;;;;;;;2.20;99.90;;;1.25;85.56;97300.94;10493596;28;1805;-68
2022/01/14 10:27:09;;;;;;;;;;;2.30;99.90;;;1.44;85.52;97304.94;10496193;28;1989;-66
2022/01/14 10:32:19;;;;;;;;;;;2.30;99.90;;;1.60;84.38;97283.59;10499978;28;2335;-67
2022/01/14 10:37:22;;;;;;;;;;;2.50;99.90;;;1.85;82.61;97286.00;10501213;28;1790;-68
2022/01/14 10:42:24;;;;;;;;;;;2.40;99.90;;;1.88;83.79;97285.63;10492026;28;1865;-67
2022/01/14 10:47:35;;;;;;;;;;;;;;;1.99;82.39;97287.84;10490405;28;2258;-68
2022/01/14 10:52:38;;;;;;;;;;;3.10;99.90;;;2.05;82.19;97283.63;10498727;28;1840;-66
2022/01/14 10:57:41;;;;;;;;;;;3.00;99.90;;;2.24;80.81;97285.72;10500999;28;2032;-68
2022/01/14 11:02:45;;;;;;;;;;;2.70;99.90;;;2.26;81.13;97277.59;10500467;28;1985;-68
2022/01/14 11:07:48;;;;;;;;;;;3.30;99.90;;;2.43;80.25;97268.41;10499236;28;1993;-69
2022/01/14 11:12:51;;;;;;;;;;;3.30;99.90;;;2.56;78.08;97260.63;10498943;28;1893;-69
2022/01/14 11:17:55;;;;;;;;;;;3.50;99.90;;;2.67;78.87;97260.13;10519967;22;1776;-71
2022/01/14 11:23:17;;;;;;;;;;;3.60;99.90;;;2.84;78.28;97247.44;10533013;28;2002;-72
2022/01/14 11:28:24;;;;;;;;;;;3.90;99.90;;;2.85;78.52;97240.28;10517984;28;1914;-71
2022/01/14 11:33:27;;;;;;;;;;;3.90;99.90;;;2.89;77.45;97234.41;10515951;28;1882;-71
2022/01/14 11:38:30;;;;;;;;;;;4.00;99.90;;;3.05;77.49;97225.34;10520194;28;1912;-70
2022/01/14 11:43:33;;;;;;;;;;;4.20;99.90;;;3.21;76.67;97219.78;10522088;28;1994;-70
2022/01/14 11:48:38;;;;;;;;;;;4.10;99.90;;;3.38;75.27;97214.19;10517858;28;1972;-70
2022/01/14 11:53:42;;;;;;;;;;;4.20;99.90;;;3.46;75.41;97206.06;10516027;28;2432;-70
2022/01/14 11:58:45;;;;;;;;;;;4.30;99.90;;;3.45;76.08;97193.81;10512540;28;1857;-71
2022/01/14 12:03:48;;;;;;;;;;;4.40;99.90;;;3.62;75.21;97195.13;10533034;28;2030;-71
2022/01/14 12:08:51;;;;;;;;;;;4.50;99.90;;;3.71;74.33;97182.50;10515891;28;1918;-70
2022/01/14 12:13:56;;;;;;;;;;;4.70;99.90;;;3.70;72.69;97176.38;10536566;28;1952;-70
2022/01/14 12:18:59;;;;;;;;;;;4.70;99.90;;;3.81;72.10;97172.31;10528253;28;1865;-71
2022/01/14 12:24:02;;;;;;;;;;;4.70;99.90;;;3.90;71.63;97165.84;10533016;28;1835;-71
2022/01/14 12:29:05;;;;;;;;;;;4.90;99.90;;;4.02;70.58;97160.78;10522051;28;1984;-71
2022/01/14 12:34:09;;;;;;;;;;;4.80;99.90;;;4.15;70.40;97162.69;10517035;28;1874;-71
2022/01/14 12:39:11;;;;;;;;;;;5.10;99.90;;;4.27;68.95;97161.09;10519304;28;1867;-72
2022/01/14 12:44:15;;;;;;;;;;;5.00;99.90;;;4.38;69.12;97149.84;10516851;28;2111;-72
2022/01/14 12:49:18;;;;;;;;;;;5.20;99.90;;;4.47;68.56;97153.16;10515030;28;2082;-72
2022/01/14 12:54:21;;;;;;;;;;;5.30;99.90;;;4.66;68.59;97148.91;10516571;28;1929;-71
2022/01/14 12:59:25;;;;;;;;;;;5.40;99.90;;;4.75;68.35;97143.16;10517054;28;2317;-71
2022/01/14 13:04:28;;;;;;;;;;;5.70;99.90;;;4.89;68.38;97139.47;10533949;28;2169;-71
2022/01/14 13:09:32;;;;;;;;;;;5.90;99.90;;;5.01;68.42;97121.03;10519293;28;1944;-72
2022/01/14 13:14:38;;;;;;;;;;;6.00;99.90;;;5.23;68.08;97113.66;10521326;28;1907;-71
2022/01/14 13:19:42;;;;;;;;;;;6.30;99.90;;;5.36;68.37;97118.97;10540686;28;1855;-72
2022/01/14 13:24:45;;;;;;;;;;;6.30;99.90;;;5.59;68.54;97112.34;10518638;28;2069;-73
2022/01/14 13:29:48;;;;;;;;;;;7.00;99.90;;;5.59;67.57;97117.69;10529710;28;2369;-72
2022/01/14 13:34:51;;;;;;;;;;;6.70;99.90;;;5.79;68.79;97105.13;10518971;28;1845;-72
2022/01/14 13:39:54;;;;;;;;;;;6.70;99.90;;;5.86;67.46;97095.25;10540524;28;2003;-71
2022/01/14 13:44:57;;;;;;;;;;;6.90;99.90;;;5.67;68.98;97096.13;10519089;28;2060;-71
2022/01/14 13:50:00;;;;;;;;;;;6.80;99.90;;;5.61;71.17;97088.97;10517645;28;1945;-72
2022/01/14 13:55:03;;;;;;;;;;;6.60;99.90;;;5.68;70.83;97087.09;10521339;28;1891;-70
2022/01/14 14:00:07;;;;;;;;;;;6.70;99.90;;;5.65;70.48;97074.16;10519015;28;1761;-71
2022/01/14 14:05:10;;;;;;;;;;;6.80;99.90;;;5.52;71.52;97082.19;10515282;28;1953;-72
2022/01/14 14:10:30;;;;;;;;;;;6.70;99.90;;;5.55;71.05;97079.13;10523638;28;1972;-73
2022/01/14 14:15:44;;;;;;;;;;;6.80;99.90;;;5.49;71.88;97069.31;10507333;28;1834;-72
2022/01/14 14:20:48;;;;;;;;;;;6.50;99.90;;;5.56;72.29;97070.09;10513398;28;1940;-71
2022/01/14 14:25:52;;;;;;;;;;;6.50;99.90;;;5.66;71.82;97055.28;10515100;28;1803;-72
2022/01/14 14:30:54;;;;;;;;;;;6.60;99.90;;;5.60;72.63;97060.66;10513766;28;1910;-72
2022/01/14 14:35:59;;;;;;;;;;;6.70;99.90;;;5.70;73.27;97050.34;10515010;28;1862;-70
2022/01/14 14:41:03;;;;;;;;;;;6.70;99.90;;;5.65;74.60;97058.16;10515189;28;1892;-71
2022/01/14 14:46:10;;;;;;;;;;;6.70;99.90;;;5.74;74.68;97048.09;10515282;28;1870;-71
2022/01/14 14:51:13;;;;;;;;;;;6.70;99.90;;;5.63;75.32;97044.22;10506866;28;2002;-71
2022/01/14 14:56:17;;;;;;;;;;;6.70;99.90;;;5.59;75.44;97038.47;10516593;28;1891;-72
2022/01/14 15:01:22;;;;;;;;;;;6.70;99.90;;;5.48;77.07;97039.16;10502810;28;1768;-72
2022/01/14 15:06:28;;;;;;;;;;;6.70;99.90;;;5.41;77.57;97030.34;10514220;28;1844;-73
2022/01/14 15:11:31;;;;;;;;;;;6.70;99.90;;;5.36;79.24;97022.97;10515367;28;1980;-72
2022/01/14 15:17:20;;;;;;;;;;;6.50;99.90;;;5.24;78.85;97019.31;10515220;28;1917;-73
2022/01/14 15:22:23;;;;;;;;;;;6.40;99.90;;;5.07;80.60;97018.13;10513674;28;1836;-74
2022/01/14 15:27:27;;;;;;;;;;;6.30;99.90;;;5.00;79.41;97017.31;10511390;28;1914;-71
2022/01/14 15:32:31;;;;;;;;;;;6.20;99.90;;;4.86;79.75;97019.19;10510535;28;2002;-72
2022/01/14 15:37:34;;;;;;;;;;;6.10;99.90;;;4.74;80.14;97018.16;10518628;28;1835;-72
2022/01/14 15:42:37;;;;;;;;;;;5.90;99.90;;;4.74;80.75;97020.84;10514459;28;1859;-72
2022/01/14 15:47:40;;;;;;;;;;;6.00;99.90;;;4.66;80.59;97037.84;10516284;28;1981;-72
2022/01/14 15:52:44;;;;;;;;;;;5.90;99.90;;;4.63;81.09;97040.09;10511640;28;1935;-72
2022/01/14 15:57:47;;;;;;;;;;;6.00;99.90;;;4.66;81.11;97037.84;10511486;28;2061;-73
2022/01/14 16:02:50;;;;;;;;;;;5.90;99.90;;;4.60;81.91;97033.34;10513638;28;1793;-72
2022/01/14 16:07:53;;;;;;;;;;;6.00;99.90;;;4.36;82.62;97041.91;10510772;28;1905;-73
2022/01/14 16:12:58;;;;;;;;;;;5.90;99.90;;;4.21;83.29;97037.59;10508720;28;1924;-73
2022/01/14 16:18:01;;;;;;;;;;;5.60;99.90;;;4.03;83.62;97053.34;10510559;28;1881;-73
2022/01/14 16:23:05;;;;;;;;;;;5.40;99.90;;;4.09;83.38;97052.53;10506263;28;1853;-73
2022/01/14 16:28:11;;;;;;;;;;;5.30;99.90;;;3.95;84.17;97046.34;10500292;28;1976;-73
2022/01/14 16:33:14;;;;;;;;;;;5.40;99.90;;;4.00;83.79;97043.06;10510414;28;1896;-71
2022/01/14 16:38:17;;;;;;;;;;;5.30;99.90;;;3.83;85.63;97028.50;10521951;28;1945;-72
2022/01/14 16:43:22;;;;;;;;;;;5.20;99.90;;;3.76;85.24;97023.19;10521509;28;2203;-72
2022/01/14 16:48:25;;;;;;;;;;;5.20;99.90;;;3.50;86.99;97034.53;10513905;28;1907;-72
2022/01/14 16:53:30;;;;;;;;;;;4.90;99.90;;;3.45;87.15;97036.97;10532474;28;1823;-71
2022/01/14 16:58:34;;;;;;;;;;;4.90;99.90;;;3.46;89.35;97036.75;10506181;28;2025;-75
2022/01/14 17:03:37;;;;;;;;;;;4.80;99.90;;;3.27;90.28;97042.81;10518843;28;1852;-73
2022/01/14 17:08:43;;;;;;;;;;;4.70;99.90;;;3.22;91.91;97040.72;10517067;28;1913;-72
2022/01/14 17:13:47;;;;;;;;;;;4.60;99.90;;;3.06;93.55;97035.75;10513652;28;2105;-72
2022/01/14 17:18:50;;;;;;;;;;;4.50;99.90;;;3.18;95.09;97028.88;10518372;28;1937;-71
2022/01/14 17:23:53;;;;;;;;;;;4.50;99.90;;;3.12;95.30;97034.97;10514718;28;1782;-72
2022/01/14 17:28:56;;;;;;;;;;;4.50;99.90;;;2.86;96.55;97048.03;10511018;28;1986;-71
2022/01/14 17:33:59;;;;;;;;;;;4.30;99.90;;;2.78;97.93;97037.56;10516196;28;1882;-71
2022/01/14 17:39:03;;;;;;;;;;;4.20;99.90;;;2.84;98.53;97039.47;10513747;28;1849;-75
2022/01/14 17:44:06;;;;;;;;;;;4.20;99.90;;;2.79;98.59;97025.94;10511599;28;1820;-73
2022/01/14 17:49:09;;;;;;;;;;;4.20;99.90;;;2.59;99.42;97026.63;10505846;28;1901;-73
2022/01/14 17:54:12;;;;;;;;;;;4.10;99.90;;;2.51;100.00;97026.75;10515594;28;1845;-72
2022/01/14 17:59:15;;;;;;;;;;;3.90;99.90;;;2.41;100.00;97032.38;10518058;28;1802;-70
2022/01/14 18:04:18;;;;;;;;;;;3.80;99.90;;;2.46;100.00;97046.94;10521910;28;1889;-73
2022/01/14 18:09:22;;;;;;;;;;;3.80;99.90;;;2.51;100.00;97037.38;10512187;28;2277;-71
2022/01/14 18:14:27;;;;;;;;;;;3.80;99.90;;;2.42;100.00;97033.22;10516998;28;1848;-72
2022/01/14 18:19:30;;;;;;;;;;;3.80;99.90;;;2.30;100.00;97046.19;10516082;28;1957;-73
2022/01/14 18:24:33;;;;;;;;;;;3.70;99.90;;;2.27;100.00;97045.72;10515793;28;1916;-73
2022/01/14 18:29:36;;;;;;;;;;;3.70;99.90;;;2.08;100.00;97053.31;10513166;28;1910;-72
2022/01/14 18:34:39;;;;;;;;;;;3.60;99.90;;;2.02;100.00;97046.09;10515401;28;1841;-72
2022/01/14 18:39:42;;;;;;;;;;;3.50;99.90;;;1.89;100.00;97038.00;10518103;28;1914;-72
2022/01/14 18:44:46;;;;;;;;;;;3.30;99.90;;;1.81;100.00;97036.31;10514978;22;3443;-69
2022/01/14 18:49:50;;;;;;;;;;;3.20;99.90;;;1.67;100.00;97033.72;10474646;28;1914;-69
2022/01/14 18:54:53;;;;;;;;;;;3.10;99.90;;;1.59;100.00;97024.88;10485521;28;2043;-67
2022/01/14 18:59:56;;;;;;;;;;;3.00;99.90;;;1.50;100.00;97033.91;10449503;28;1452;-69
2022/01/14 19:05:03;;;;;;;;;;;2.90;99.90;;;1.49;100.00;97026.97;10451473;28;1547;-69
2022/01/14 19:10:08;;;;;;;;;;;2.90;99.90;;;1.58;100.00;97009.94;10452038;28;1914;-69
2022/01/14 19:15:11;;;;;;;;;;;2.90;99.90;;;1.43;100.00;97017.13;10465603;28;1701;-71
2022/01/14 19:20:14;;;;;;;;;;;2.80;99.90;;;1.47;100.00;97021.03;10454730;28;1412;-70
2022/01/14 19:25:17;;;;;;;;;;;2.80;99.90;;;1.52;100.00;97023.13;10462105;28;2035;-70
2022/01/14 19:30:20;;;;;;;;;;;2.90;99.90;;;1.52;100.00;97018.63;10454482;28;1902;-70
2022/01/14 19:35:23;;;;;;;;;;;2.90;99.90;;;1.41;100.00;97016.50;10453930;28;1424;-70
2022/01/14 19:40:27;;;;;;;;;;;2.80;99.90;;;1.35;100.00;97014.56;10454027;28;1329;-68
2022/01/14 19:45:30;;;;;;;;;;;2.70;99.90;;;1.28;100.00;97021.63;10457558;28;1368;-71
2022/01/14 19:50:34;;;;;;;;;;;2.70;99.90;;;1.22;100.00;97028.47;10456996;28;1905;-69
2022/01/14 19:55:37;;;;;;;;;;;2.60;99.90;;;1.13;100.00;97015.50;10461996;28;1609;-72
2022/01/14 20:00:40;;;;;;;;;;;2.50;99.90;;;1.11;100.00;97022.81;10454455;28;1901;-70
2022/01/14 20:05:44;;;;;;;;;;;2.50;99.90;;;1.01;100.00;97013.31;10458810;28;1834;-70
2022/01/14 20:10:49;;;;;;;;;;;2.40;99.90;;;0.94;100.00;97014.22;10457984;28;1922;-69
2022/01/14 20:15:52;;;;;;;;;;;2.30;99.90;;;0.87;100.00;97008.84;10458896;28;1602;-71
2022/01/14 20:20:55;;;;;;;;;;;2.20;99.90;;;0.76;100.00;97014.56;10476827;28;1908;-68
2022/01/14 20:25:58;;;;;;;;;;;2.10;99.90;;;0.76;100.00;97009.28;10459916;28;1569;-68
2022/01/14 20:31:01;;;;;;;;;;;2.10;99.90;;;0.71;100.00;97017.78;10453715;28;1966;-70
2022/01/14 20:36:04;;;;;;;;;;;2.10;99.90;;;0.67;100.00;97023.63;10457665;28;1486;-70
2022/01/14 20:41:07;;;;;;;;;;;2.00;99.90;;;0.65;100.00;97005.28;10468592;28;1499;-69
2022/01/14 20:46:11;;;;;;;;;;;2.10;99.90;;;0.65;100.00;97001.81;10456559;28;1611;-69
2022/01/14 20:51:14;;;;;;;;;;;2.00;99.90;;;0.53;100.00;96989.03;10453499;28;1955;-70
2022/01/14 20:56:17;;;;;;;;;;;1.90;99.90;;;0.41;100.00;96998.41;10449928;28;2294;-71
2022/01/14 21:01:20;;;;;;;;;;;1.80;99.90;;;0.35;100.00;96996.47;10454810;28;1597;-71
2022/01/14 21:06:23;;;;;;;;;;;1.70;99.90;;;0.32;100.00;96991.56;10462431;28;1610;-70
2022/01/14 21:11:26;;;;;;;;;;;1.70;99.90;;;0.29;100.00;96986.59;10448384;28;1981;-69
2022/01/14 21:16:30;;;;;;;;;;;1.70;99.90;;;0.27;100.00;96980.69;10446962;28;1742;-71
2022/01/14 21:21:33;;;;;;;;;;;1.50;99.90;;;0.19;100.00;96983.38;10457576;28;1558;-70
2022/01/14 21:26:36;;;;;;;;;;;1.60;99.90;;;0.13;100.00;96973.53;10453285;28;1554;-69
2022/01/14 21:31:39;;;;;;;;;;;1.50;99.90;;;0.10;100.00;96980.00;10471962;28;1922;-70
2022/01/14 21:36:43;;;;;;;;;;;1.50;99.90;;;0.07;100.00;96976.91;10457775;28;1803;-69
2022/01/14 21:41:46;;;;;;;;;;;1.40;99.90;;;0.12;100.00;96982.44;10469267;28;1528;-68
2022/01/14 21:46:49;;;;;;;;;;;1.40;99.90;;;0.07;100.00;96974.25;10465597;28;1535;-69
2022/01/14 21:51:52;;;;;;;;;;;1.40;99.90;;;0.01;100.00;96978.44;10473254;28;1953;-71
2022/01/14 21:56:55;;;;;;;;;;;1.40;99.90;;;-0.12;100.00;96979.03;10468335;28;1663;-68
2022/01/14 22:01:58;;;;;;;;;;;1.20;99.90;;;-0.13;100.00;96966.78;10456941;28;1869;-69
2022/01/14 22:07:02;;;;;;;;;;;1.30;99.90;;;-0.21;100.00;96969.50;10455276;28;1868;-70
2022/01/14 22:12:07;;;;;;;;;;;1.10;99.90;;;-0.25;100.00;96967.38;10445816;28;1981;-69
2022/01/14 22:17:10;;;;;;;;;;;1.10;99.90;;;-0.23;100.00;96968.03;10451995;28;1797;-68
2022/01/14 22:22:13;;;;;;;;;;;1.10;99.90;;;-0.30;100.00;96960.00;10453581;28;1798;-70
2022/01/14 22:27:16;;;;;;;;;;;1.00;99.90;;;-0.37;100.00;96959.06;10456780;28;1871;-70
2022/01/14 22:32:20;;;;;;;;;;;1.00;99.90;;;-0.36;100.00;96950.13;10448591;28;1985;-70
2022/01/14 22:37:23;;;;;;;;;;;1.00;99.90;;;-0.45;100.00;96951.16;10488504;28;2023;-71
2022/01/14 22:42:27;;;;;;;;;;;0.90;99.90;;;-0.50;100.00;96943.81;10509559;28;1878;-71
2022/01/14 22:47:31;;;;;;;;;;;0.80;99.90;;;-0.58;100.00;96957.84;10492940;28;1845;-71
2022/01/14 22:52:33;;;;;;;;;;;0.80;99.90;;;-0.67;100.00;96958.09;10475026;28;1971;-68
2022/01/14 22:57:36;;;;;;;;;;;0.70;99.90;;;-0.61;100.00;96947.66;10460486;28;1873;-69
2022/01/14 23:02:39;;;;;;;;;;;0.70;99.90;;;-0.71;100.00;96941.75;10463791;28;1836;-70
2022/01/14 23:07:43;;;;;;;;;;;0.70;99.90;;;-0.78;100.00;96940.00;10462686;28;1854;-69
2022/01/14 23:12:46;;;;;;;;;;;0.60;99.90;;;-0.79;100.00;96938.34;10462030;28;1918;-69
2022/01/14 23:17:49;;;;;;;;;;;0.70;99.90;;;-0.82;100.00;96928.97;10460403;28;1846;-70
2022/01/14 23:22:52;;;;;;;;;;;0.50;99.90;;;-0.87;100.00;96915.47;10459490;28;1939;-69
2022/01/14 23:27:55;;;;;;;;;;;0.50;99.90;;;-0.96;100.00;96914.69;10458183;28;1994;-70
2022/01/14 23:32:58;;;;;;;;;;;0.40;99.90;;;-0.95;100.00;96907.59;10464579;28;1914;-69
2022/01/14 23:38:02;;;;;;;;;;;0.40;99.90;;;-0.95;100.00;96907.59;10455115;28;1900;-68
2022/01/14 23:43:15;;;;;;;;;;;0.40;99.90;;;-0.97;100.00;96907.75;10458360;28;1836;-69